createdAt,value
2023-04-10T00:00:33.342Z,23.67
2023-04-10T00:03:02.170Z,25.57
2023-04-10T00:05:29.591Z,23.73
2023-04-10T00:07:56.902Z,24.03
2023-04-10T00:10:26.434Z,25.27
2023-04-10T00:12:54.107Z,27.67
2023-04-10T00:15:21.640Z,25.03
2023-04-10T00:17:50.679Z,22.27
2023-04-10T00:20:18.026Z,23.83
2023-04-10T00:22:45.303Z,27.17
2023-04-10T00:25:12.479Z,29.63
2023-04-10T00:27:39.790Z,28.63
2023-04-10T00:30:07.536Z,27.10
2023-04-10T00:32:34.707Z,28.10
2023-04-10T00:35:01.982Z,27.43
2023-04-10T00:37:29.253Z,27.47
2023-04-10T00:39:56.442Z,26.63
2023-04-10T00:42:23.666Z,26.53
2023-04-10T00:44:50.887Z,25.77
2023-04-10T00:47:18.210Z,22.70
2023-04-10T00:49:46.028Z,20.27
2023-04-10T00:52:13.283Z,19.53
2023-04-10T00:54:40.956Z,18.80
2023-04-10T00:57:08.460Z,20.47
2023-04-10T00:59:36.261Z,20.03
2023-04-10T01:02:04.109Z,21.43
2023-04-10T01:04:32.409Z,21.93
2023-04-10T01:07:05.208Z,26.43
2023-04-10T01:09:41.581Z,25.23
2023-04-10T01:12:09.703Z,25.57
2023-04-10T01:14:55.577Z,25.67
2023-04-10T01:17:24.785Z,25.90
2023-04-10T01:19:51.930Z,25.73
2023-04-10T01:22:20.560Z,25.87
2023-04-10T01:25:09.821Z,26.03
2023-04-10T01:27:56.061Z,25.77
2023-04-10T01:30:23.789Z,23.17
2023-04-10T01:32:53.055Z,19.50
2023-04-10T01:35:20.580Z,18.97
2023-04-10T01:37:49.337Z,18.20
2023-04-10T01:40:17.240Z,17.50
2023-04-10T01:42:49.679Z,16.37
2023-04-10T01:45:19.233Z,16.50
2023-04-10T01:47:46.543Z,16.87
2023-04-10T01:50:14.828Z,16.47
2023-04-10T01:52:42.742Z,17.83
2023-04-10T01:55:10.767Z,16.87
2023-04-10T01:57:38.132Z,18.43
2023-04-10T02:00:05.710Z,16.33
2023-04-10T02:02:33.883Z,16.43
2023-04-10T02:05:01.472Z,17.33
2023-04-10T02:07:45.681Z,15.57
2023-04-10T02:10:13.299Z,17.13
2023-04-10T02:12:46.631Z,15.50
2023-04-10T02:15:13.929Z,15.80
2023-04-10T02:17:41.811Z,16.43
2023-04-10T02:20:09.541Z,15.93
2023-04-10T02:22:37.048Z,15.93
2023-04-10T02:25:06.402Z,17.03
2023-04-10T02:27:37.453Z,17.57
2023-04-10T02:30:05.426Z,17.27
2023-04-10T02:32:33.752Z,17.13
2023-04-10T02:35:02.193Z,17.17
2023-04-10T02:37:29.708Z,17.00
2023-04-10T02:39:56.967Z,16.97
2023-04-10T02:42:24.126Z,15.67
2023-04-10T02:44:51.310Z,16.60
2023-04-10T02:47:18.855Z,16.80
2023-04-10T02:49:46.117Z,16.27
2023-04-10T02:52:30.815Z,15.07
2023-04-10T02:55:12.903Z,15.10
2023-04-10T02:57:44.323Z,15.07
2023-04-10T03:00:25.867Z,13.67
2023-04-10T03:05:48.661Z,13.53
2023-04-10T03:08:45.107Z,13.27
2023-04-10T03:11:45.362Z,15.07
2023-04-10T03:14:16.277Z,14.20
2023-04-10T03:16:47.941Z,14.97
2023-04-10T03:19:31.242Z,14.23
2023-04-10T03:22:02.650Z,13.00
2023-04-10T03:24:53.298Z,13.57
2023-04-10T03:27:24.369Z,13.70
2023-04-10T03:30:03.213Z,13.60
2023-04-10T03:32:35.669Z,12.93
2023-04-10T03:35:10.344Z,14.10
2023-04-10T03:37:45.332Z,13.47
2023-04-10T03:40:16.578Z,14.50
2023-04-10T03:42:56.584Z,13.90
2023-04-10T03:45:28.991Z,13.27
2023-04-10T03:48:11.112Z,13.90
2023-04-10T03:51:32.114Z,13.57
2023-04-10T03:53:55.648Z,14.13
2023-04-10T03:56:33.987Z,12.53
2023-04-10T03:59:11.185Z,12.97
2023-04-10T04:01:46.691Z,12.57
2023-04-10T04:04:26.662Z,12.37
2023-04-10T04:06:54.834Z,12.67
2023-04-10T04:09:32.837Z,13.83
2023-04-10T04:12:24.177Z,13.67
2023-04-10T04:14:55.996Z,12.47
2023-04-10T04:17:48.570Z,13.50
2023-04-10T04:20:28.405Z,12.87
2023-04-10T04:22:55.823Z,12.40
2023-04-10T04:25:24.072Z,11.67
2023-04-10T04:27:51.301Z,13.47
2023-04-10T04:30:18.479Z,13.03
2023-04-10T04:32:45.730Z,11.80
2023-04-10T04:35:13.031Z,12.37
2023-04-10T04:37:40.824Z,12.30
2023-04-10T04:40:08.293Z,12.67
2023-04-10T04:42:35.871Z,11.70
2023-04-10T04:45:03.014Z,12.73
2023-04-10T04:47:30.249Z,12.57
2023-04-10T04:49:57.589Z,11.10
2023-04-10T04:52:25.644Z,11.97
2023-04-10T04:54:52.922Z,11.00
2023-04-10T04:57:20.147Z,11.53
2023-04-10T04:59:47.304Z,11.37
2023-04-10T05:02:14.565Z,11.33
2023-04-10T05:04:42.123Z,11.23
2023-04-10T05:07:09.309Z,11.07
2023-04-10T05:09:36.521Z,11.07
2023-04-10T05:12:03.953Z,10.47
2023-04-10T05:14:31.086Z,10.73
2023-04-10T05:16:58.258Z,10.40
2023-04-10T05:19:26.686Z,11.17
2023-04-10T05:21:53.862Z,10.50
2023-04-10T05:24:21.587Z,11.87
2023-04-10T05:26:48.779Z,12.90
2023-04-10T05:29:15.996Z,12.03
2023-04-10T05:31:43.151Z,12.73
2023-04-10T05:34:10.418Z,12.57
2023-04-10T05:36:37.541Z,12.10
2023-04-10T05:39:04.803Z,12.23
2023-04-10T05:41:32.023Z,12.53
2023-04-10T05:43:59.212Z,13.23
2023-04-10T05:46:26.433Z,13.53
2023-04-10T05:48:54.122Z,14.20
2023-04-10T05:51:21.447Z,14.53
2023-04-10T05:53:49.587Z,14.07
2023-04-10T05:56:16.736Z,15.47
2023-04-10T05:58:44.008Z,15.50
2023-04-10T06:01:11.467Z,16.03
2023-04-10T06:03:38.905Z,16.90
2023-04-10T06:06:08.255Z,16.03
2023-04-10T06:08:35.694Z,17.00
2023-04-10T06:11:02.861Z,16.50
2023-04-10T06:13:30.402Z,14.60
2023-04-10T06:15:57.713Z,13.83
2023-04-10T06:18:24.961Z,15.50
2023-04-10T06:20:52.088Z,14.37
2023-04-10T06:23:19.236Z,16.97
2023-04-10T06:25:46.368Z,15.97
2023-04-10T06:28:13.557Z,20.33
2023-04-10T06:30:40.729Z,18.40
2023-04-10T06:33:07.898Z,21.63
2023-04-10T06:35:35.996Z,23.20
2023-04-10T06:38:03.168Z,25.20
2023-04-10T06:40:30.966Z,25.33
2023-04-10T06:42:59.375Z,26.33
2023-04-10T06:45:26.641Z,21.80
2023-04-10T06:47:54.365Z,21.07
2023-04-10T06:50:21.944Z,18.57
2023-04-10T06:52:49.186Z,17.43
2023-04-10T06:55:17.123Z,17.50
2023-04-10T06:57:44.321Z,16.97
2023-04-10T07:00:11.805Z,16.20
2023-04-10T07:02:39.044Z,14.60
2023-04-10T07:05:06.409Z,15.10
2023-04-10T07:07:34.173Z,14.67
2023-04-10T07:10:01.482Z,14.10
2023-04-10T07:12:28.698Z,15.10
2023-04-10T07:14:56.192Z,14.27
2023-04-10T07:17:23.454Z,14.37
2023-04-10T07:19:50.990Z,14.87
2023-04-10T07:22:18.180Z,15.57
2023-04-10T07:24:45.425Z,14.93
2023-04-10T07:27:12.948Z,17.10
2023-04-10T07:29:40.130Z,17.57
2023-04-10T07:32:07.550Z,19.03
2023-04-10T07:34:34.758Z,22.13
2023-04-10T07:37:01.881Z,20.50
2023-04-10T07:39:29.086Z,23.20
2023-04-10T07:41:56.435Z,20.73
2023-04-10T07:44:23.690Z,22.10
2023-04-10T07:46:52.321Z,21.90
2023-04-10T07:49:19.671Z,21.93
2023-04-10T07:51:46.865Z,22.73
2023-04-10T07:54:14.052Z,22.73
2023-04-10T07:56:41.349Z,22.20
2023-04-10T07:59:08.916Z,21.27
2023-04-10T08:01:36.151Z,22.57
2023-04-10T08:04:05.528Z,23.83
2023-04-10T08:06:33.405Z,23.40
2023-04-10T08:09:02.038Z,22.53
2023-04-10T08:11:30.691Z,24.80
2023-04-10T08:13:59.394Z,24.83
2023-04-10T08:16:27.083Z,25.50
2023-04-10T08:18:54.897Z,24.17
2023-04-10T08:21:25.164Z,25.40
2023-04-10T08:23:52.618Z,25.20
2023-04-10T08:26:19.836Z,26.63
2023-04-10T08:28:49.319Z,24.43
2023-04-10T08:31:16.585Z,24.43
2023-04-10T08:33:43.774Z,24.17
2023-04-10T08:36:12.650Z,24.70
2023-04-10T08:38:40.250Z,22.20
2023-04-10T08:41:07.563Z,24.67
2023-04-10T08:43:35.564Z,23.80
2023-04-10T08:46:03.105Z,22.43
2023-04-10T08:48:41.125Z,22.63
2023-04-10T08:51:15.534Z,22.87
2023-04-10T08:53:47.192Z,24.47
2023-04-10T08:56:15.496Z,25.07
2023-04-10T08:58:43.396Z,27.10
2023-04-10T09:01:14.242Z,24.57
2023-04-10T09:03:41.630Z,25.23
2023-04-10T09:06:09.533Z,26.20
2023-04-10T09:08:36.749Z,24.80
2023-04-10T09:11:03.994Z,24.47
2023-04-10T09:13:39.010Z,26.00
2023-04-10T09:16:07.057Z,27.50
2023-04-10T09:18:45.726Z,27.00
2023-04-10T09:21:14.417Z,26.90
2023-04-10T09:23:43.138Z,26.55
2023-04-10T09:26:30.587Z,25.27
2023-04-10T09:28:57.943Z,25.02
2023-04-10T09:31:35.026Z,26.05
2023-04-10T09:34:18.482Z,27.02
2023-04-10T09:36:56.058Z,26.88
2023-04-10T09:39:23.729Z,25.58
2023-04-10T09:41:51.999Z,25.25
2023-04-10T09:44:41.742Z,26.02
2023-04-10T09:47:15.432Z,26.05
2023-04-10T09:50:03.889Z,26.58
2023-04-10T09:52:31.032Z,26.50
2023-04-10T09:55:02.557Z,28.88
2023-04-10T09:57:30.384Z,27.67
2023-04-10T09:59:59.386Z,26.77
2023-04-10T10:02:29.888Z,25.60
2023-04-10T10:05:02.598Z,27.60
2023-04-10T10:07:31.147Z,27.67
2023-04-10T10:09:59.669Z,24.92
2023-04-10T10:12:46.571Z,25.70
2023-04-10T10:15:52.575Z,25.38
2023-04-10T10:18:22.623Z,25.48
2023-04-10T10:20:54.413Z,25.50
2023-04-10T10:23:23.340Z,25.60
2023-04-10T10:25:51.105Z,24.67
2023-04-10T10:28:18.913Z,24.48
2023-04-10T10:30:49.930Z,23.98
2023-04-10T10:33:17.464Z,23.77
2023-04-10T10:35:44.960Z,23.63
2023-04-10T10:38:12.429Z,23.85
2023-04-10T10:40:46.056Z,25.02
2023-04-10T10:43:16.173Z,25.48
2023-04-10T10:45:49.324Z,25.15
2023-04-10T10:48:16.475Z,24.48
2023-04-10T10:51:03.581Z,22.40
2023-04-10T10:53:33.718Z,20.77
2023-04-10T10:56:21.108Z,21.58
2023-04-10T10:58:52.709Z,21.95
2023-04-10T11:01:23.762Z,22.35
2023-04-10T11:03:51.194Z,20.55
2023-04-10T11:06:22.374Z,21.45
2023-04-10T11:08:52.773Z,20.75
2023-04-10T11:11:24.330Z,20.58
2023-04-10T11:14:00.040Z,20.00
2023-04-10T11:16:36.664Z,20.45
2023-04-10T11:19:14.273Z,20.05
2023-04-10T11:22:01.885Z,19.92
2023-04-10T11:24:29.692Z,18.55
2023-04-10T11:26:57.526Z,20.30
2023-04-10T11:29:27.911Z,21.60
2023-04-10T11:31:56.638Z,19.52
2023-04-10T11:34:24.141Z,20.13
2023-04-10T11:36:53.322Z,20.52
2023-04-10T11:39:21.618Z,22.50
2023-04-10T11:41:49.928Z,21.27
2023-04-10T11:44:20.911Z,21.35
2023-04-10T11:46:50.709Z,20.63
2023-04-10T11:49:18.983Z,21.83
2023-04-10T11:51:46.988Z,22.05
2023-04-10T11:54:17.933Z,20.88
2023-04-10T11:56:46.210Z,21.80
2023-04-10T11:59:16.211Z,22.20
2023-04-10T12:01:43.833Z,20.00
2023-04-10T12:04:21.534Z,19.30
2023-04-10T12:06:57.325Z,19.25
2023-04-10T12:09:24.790Z,19.67
2023-04-10T12:11:53.234Z,20.13
2023-04-10T12:14:22.149Z,19.60
2023-04-10T12:16:49.930Z,19.95
2023-04-10T12:19:18.016Z,18.85
2023-04-10T12:21:46.083Z,19.27
2023-04-10T12:24:13.457Z,18.52
2023-04-10T12:26:48.563Z,21.35
2023-04-10T12:29:15.899Z,18.73
2023-04-10T12:31:43.208Z,19.45
2023-04-10T12:34:11.430Z,21.20
2023-04-10T12:36:38.723Z,21.40
2023-04-10T12:39:06.317Z,19.33
2023-04-10T12:41:34.659Z,17.00
2023-04-10T12:44:12.640Z,16.02
2023-04-10T12:46:40.472Z,14.35
2023-04-10T12:49:18.392Z,15.40
2023-04-10T12:51:52.238Z,13.95
2023-04-10T12:54:28.894Z,15.48
2023-04-10T12:56:56.252Z,14.77
2023-04-10T12:59:24.701Z,12.43
2023-04-10T13:01:51.984Z,12.80
2023-04-10T13:04:19.303Z,14.18
2023-04-10T13:06:47.226Z,11.10
2023-04-10T13:09:15.171Z,12.60
2023-04-10T13:11:44.729Z,11.05
2023-04-10T13:14:13.003Z,11.90
2023-04-10T13:16:40.183Z,10.93
2023-04-10T13:19:07.411Z,10.02
2023-04-10T13:21:34.673Z,10.15
2023-04-10T13:24:01.864Z,11.60
2023-04-10T13:26:29.066Z,10.65
2023-04-10T13:28:56.482Z,10.27
2023-04-10T13:31:23.886Z,9.68
2023-04-10T13:33:51.260Z,9.20
2023-04-10T13:36:18.529Z,11.70
2023-04-10T13:38:45.862Z,11.90
2023-04-10T13:41:13.028Z,12.95
2023-04-10T13:43:40.491Z,12.52
2023-04-10T13:46:07.773Z,11.45
2023-04-10T13:48:41.065Z,11.20
2023-04-10T13:51:08.834Z,11.07
2023-04-10T13:53:36.321Z,10.38
2023-04-10T13:56:03.631Z,9.73
2023-04-10T13:58:32.226Z,10.88
2023-04-10T14:00:59.632Z,11.00
2023-04-10T14:03:27.055Z,13.05
2023-04-10T14:05:54.847Z,15.10
2023-04-10T14:08:22.334Z,11.57
2023-04-10T14:10:50.870Z,11.52
2023-04-10T14:13:18.520Z,14.70
2023-04-10T14:15:46.045Z,11.35
2023-04-10T14:18:14.795Z,12.23
2023-04-10T14:20:42.407Z,12.75
2023-04-10T14:23:09.923Z,14.13
2023-04-10T14:25:37.532Z,13.60
2023-04-10T14:28:04.726Z,12.45
2023-04-10T14:30:33.080Z,12.48
2023-04-10T14:33:00.332Z,10.32
2023-04-10T14:35:27.693Z,9.20
2023-04-10T14:37:55.625Z,11.30
2023-04-10T14:40:22.823Z,10.77
2023-04-10T14:42:50.071Z,11.77
2023-04-10T14:45:18.135Z,11.30
2023-04-10T14:47:45.496Z,12.20
2023-04-10T14:50:13.115Z,10.40
2023-04-10T14:52:40.303Z,9.65
2023-04-10T14:55:07.672Z,10.80
2023-04-10T14:57:36.168Z,10.65
2023-04-10T15:00:03.976Z,9.88
2023-04-10T15:02:31.440Z,10.15
2023-04-10T15:04:58.856Z,10.75
2023-04-10T15:07:28.360Z,9.10
2023-04-10T15:09:58.845Z,8.35
2023-04-10T15:12:26.047Z,7.85
2023-04-10T15:14:53.553Z,8.07
2023-04-10T15:17:24.391Z,8.43
2023-04-10T15:19:51.642Z,9.15
2023-04-10T15:22:19.221Z,7.85
2023-04-10T15:24:50.511Z,7.65
2023-04-10T15:27:20.536Z,6.72
2023-04-10T15:29:47.939Z,7.43
2023-04-10T15:32:15.486Z,6.85
2023-04-10T15:34:43.029Z,7.35
2023-04-10T15:37:10.373Z,8.95
2023-04-10T15:39:37.710Z,7.43
2023-04-10T15:42:05.982Z,9.20
2023-04-10T15:44:33.290Z,9.27
2023-04-10T15:47:00.607Z,8.60
2023-04-10T15:49:36.964Z,8.23
2023-04-10T15:52:05.763Z,8.23
2023-04-10T15:54:33.875Z,8.50
2023-04-10T15:57:02.085Z,8.13
2023-04-10T15:59:29.620Z,8.10
2023-04-10T16:01:56.981Z,8.05
2023-04-10T16:04:24.494Z,8.85
2023-04-10T16:06:51.791Z,8.45
2023-04-10T16:11:50.878Z,8.60
2023-04-10T16:14:19.188Z,8.70
2023-04-10T16:16:46.672Z,8.35
2023-04-10T16:19:14.030Z,8.43
2023-04-10T16:21:42.725Z,10.32
2023-04-10T16:24:09.890Z,9.25
2023-04-10T16:26:37.093Z,9.60
2023-04-10T16:29:04.378Z,9.23
2023-04-10T16:31:31.769Z,10.07
2023-04-10T16:33:58.989Z,8.68
2023-04-10T16:36:27.099Z,9.88
2023-04-10T16:38:54.620Z,9.15
2023-04-10T16:41:22.795Z,9.23
2023-04-10T16:43:50.114Z,9.73
2023-04-10T16:46:17.497Z,10.85
2023-04-10T16:48:45.065Z,10.70
2023-04-10T16:51:18.454Z,11.75
2023-04-10T16:53:45.832Z,12.27
2023-04-10T16:56:13.070Z,12.15
2023-04-10T16:58:42.006Z,12.93
2023-04-10T17:01:19.630Z,13.85
2023-04-10T17:03:49.230Z,13.85
2023-04-10T17:06:16.704Z,16.08
2023-04-10T17:08:44.199Z,16.70
2023-04-10T17:11:14.717Z,16.88
2023-04-10T17:13:42.342Z,15.68
2023-04-10T17:16:09.826Z,18.23
2023-04-10T17:18:37.247Z,18.70
2023-04-10T17:21:04.590Z,17.02
2023-04-10T17:23:31.815Z,17.60
2023-04-10T17:25:59.166Z,18.58
2023-04-10T17:28:26.367Z,16.30
2023-04-10T17:30:53.606Z,15.52
2023-04-10T17:33:21.880Z,16.02
2023-04-10T17:35:50.436Z,16.90
2023-04-10T17:38:17.721Z,15.68
2023-04-10T17:40:45.250Z,16.13
2023-04-10T17:43:12.471Z,16.10
2023-04-10T17:45:40.520Z,15.57
2023-04-10T17:48:07.909Z,17.52
2023-04-10T17:50:35.917Z,17.65
2023-04-10T17:53:03.089Z,19.15
2023-04-10T17:55:30.386Z,21.52
2023-04-10T17:57:58.616Z,22.45
2023-04-10T18:00:25.904Z,22.60
2023-04-10T18:02:58.190Z,23.83
2023-04-10T18:05:25.849Z,27.98
2023-04-10T18:07:52.989Z,34.90
2023-04-10T18:10:20.245Z,35.65
2023-04-10T18:12:47.457Z,35.55
2023-04-10T18:15:15.209Z,35.83
2023-04-10T18:17:42.561Z,37.17
2023-04-10T18:20:09.970Z,37.85
2023-04-10T18:22:37.161Z,39.78
2023-04-10T18:25:05.285Z,36.97
2023-04-10T18:27:34.681Z,32.40
2023-04-10T18:30:02.017Z,29.33
2023-04-10T18:32:29.505Z,30.97
2023-04-10T18:34:56.710Z,40.30
2023-04-10T18:37:23.997Z,37.40
2023-04-10T18:39:51.220Z,39.25
2023-04-10T18:42:18.393Z,40.55
2023-04-10T18:44:45.620Z,40.00
2023-04-10T18:47:12.847Z,39.20
2023-04-10T18:49:40.308Z,41.23
2023-04-10T18:52:07.607Z,43.07
2023-04-10T18:54:35.153Z,43.50
2023-04-10T18:57:02.516Z,45.53
2023-04-10T18:59:29.791Z,60.07
2023-04-10T19:01:57.075Z,78.60
2023-04-10T19:04:24.728Z,72.47
2023-04-10T19:06:52.201Z,69.20
2023-04-10T19:09:19.414Z,68.60
2023-04-10T19:11:46.727Z,86.50
2023-04-10T19:14:13.886Z,72.67
2023-04-10T19:16:41.036Z,66.30
2023-04-10T19:19:08.227Z,58.97
2023-04-10T19:21:35.515Z,63.60
2023-04-10T19:24:02.660Z,70.93
2023-04-10T19:26:29.935Z,77.07
2023-04-10T19:28:57.415Z,73.60
2023-04-10T19:31:27.609Z,76.77
2023-04-10T19:33:54.963Z,67.43
2023-04-10T19:36:22.307Z,65.73
2023-04-10T19:38:51.183Z,58.27
2023-04-10T19:41:18.638Z,57.23
2023-04-10T19:43:45.909Z,53.40
2023-04-10T19:46:17.117Z,52.47
2023-04-10T19:48:44.309Z,50.23
2023-04-10T19:51:11.516Z,50.50
2023-04-10T19:53:38.890Z,50.27
2023-04-10T19:56:06.410Z,47.33
2023-04-10T19:58:40.528Z,45.63
2023-04-10T20:01:21.112Z,45.13
2023-04-10T20:03:48.456Z,46.83
2023-04-10T20:06:16.381Z,45.60
2023-04-10T20:08:43.561Z,45.70
2023-04-10T20:11:10.854Z,46.27
2023-04-10T20:13:39.301Z,44.77
2023-04-10T20:16:07.534Z,44.27
2023-04-10T20:18:35.100Z,43.77
2023-04-10T20:21:02.287Z,43.77
2023-04-10T20:23:29.476Z,45.40
2023-04-10T20:25:56.710Z,44.33
2023-04-10T20:28:23.892Z,46.37
2023-04-10T20:30:51.354Z,56.47
2023-04-10T20:33:18.472Z,71.13
2023-04-10T20:35:45.832Z,89.57
2023-04-10T20:38:12.998Z,77.00
2023-04-10T20:40:43.068Z,69.20
2023-04-10T20:43:14.128Z,66.80
2023-04-10T20:45:41.739Z,53.73
2023-04-10T20:48:09.409Z,48.17
2023-04-10T20:50:37.233Z,44.67
2023-04-10T20:53:04.523Z,40.67
2023-04-10T20:55:31.700Z,38.20
2023-04-10T20:57:58.897Z,34.00
2023-04-10T21:00:26.122Z,27.97
2023-04-10T21:02:53.570Z,28.33
2023-04-10T21:05:21.234Z,26.67
2023-04-10T21:07:48.785Z,23.93
2023-04-10T21:10:16.133Z,23.67
2023-04-10T21:12:43.860Z,23.83
2023-04-10T21:15:11.183Z,21.53
2023-04-10T21:17:38.428Z,22.17
2023-04-10T21:20:05.889Z,20.87
2023-04-10T21:22:34.160Z,21.80
2023-04-10T21:25:01.401Z,22.83
2023-04-10T21:27:28.596Z,22.37
2023-04-10T21:29:56.088Z,22.63
2023-04-10T21:32:23.362Z,23.33
2023-04-10T21:34:50.795Z,23.00
2023-04-10T21:37:18.192Z,22.57
2023-04-10T21:39:45.437Z,23.23
2023-04-10T21:42:12.654Z,22.30
2023-04-10T21:44:39.784Z,23.77
2023-04-10T21:47:07.051Z,25.53
2023-04-10T21:49:34.276Z,24.50
2023-04-10T21:52:01.474Z,23.60
2023-04-10T21:54:29.390Z,23.13
2023-04-10T21:56:56.602Z,23.37
2023-04-10T21:59:23.752Z,20.73
2023-04-10T22:01:51.113Z,21.07
2023-04-10T22:04:18.553Z,21.77
2023-04-10T22:06:45.893Z,21.93
2023-04-10T22:09:13.760Z,20.43
2023-04-10T22:11:41.128Z,21.77
2023-04-10T22:14:17.292Z,21.80
2023-04-10T22:16:45.479Z,19.87
2023-04-10T22:19:12.774Z,21.07
2023-04-10T22:21:39.980Z,21.63
2023-04-10T22:24:07.342Z,23.20
2023-04-10T22:26:35.210Z,23.37
2023-04-10T22:29:03.570Z,24.90
2023-04-10T22:31:31.163Z,23.50
2023-04-10T22:33:58.484Z,24.33
2023-04-10T22:36:31.404Z,24.00
2023-04-10T22:38:58.554Z,24.00
2023-04-10T22:41:25.964Z,22.77
2023-04-10T22:43:53.133Z,23.97
2023-04-10T22:46:20.589Z,23.20
2023-04-10T22:48:47.929Z,22.37
2023-04-10T22:51:15.482Z,22.57
2023-04-10T22:53:42.666Z,24.73
2023-04-10T22:56:10.505Z,24.57
2023-04-10T22:58:40.882Z,26.17
2023-04-10T23:01:08.345Z,26.93
2023-04-10T23:03:35.857Z,27.27
2023-04-10T23:06:03.364Z,26.33
2023-04-10T23:08:30.652Z,26.13
2023-04-10T23:10:58.032Z,26.53
2023-04-10T23:13:25.648Z,26.97
2023-04-10T23:15:53.776Z,24.90
2023-04-10T23:18:21.297Z,22.97
2023-04-10T23:20:49.125Z,23.57
2023-04-10T23:23:16.696Z,26.73
2023-04-10T23:25:43.896Z,26.83
2023-04-10T23:28:11.188Z,26.17
2023-04-10T23:30:38.422Z,24.70
2023-04-10T23:33:05.751Z,27.70
2023-04-10T23:35:33.010Z,28.40
2023-04-10T23:38:00.922Z,26.27
2023-04-10T23:40:28.158Z,26.17
2023-04-10T23:42:55.405Z,25.83
2023-04-10T23:45:22.612Z,25.37
2023-04-10T23:47:51.072Z,25.63
2023-04-10T23:50:18.428Z,24.77
2023-04-10T23:52:52.235Z,25.53
2023-04-10T23:55:19.960Z,24.70
2023-04-10T23:57:47.224Z,25.17
